createdAt,value
2018-06-10T00:00:53.178Z,76.30
2018-06-10T00:03:22.210Z,76.15
2018-06-10T00:05:51.236Z,75.56
2018-06-10T00:08:20.265Z,75.04
2018-06-10T00:10:49.415Z,74.65
2018-06-10T00:13:18.368Z,75.37
2018-06-10T00:15:47.341Z,74.46
2018-06-10T00:18:16.465Z,74.04
2018-06-10T00:20:45.495Z,73.35
2018-06-10T00:23:14.561Z,73.91
2018-06-10T00:25:43.589Z,73.49
2018-06-10T00:28:12.773Z,73.00
2018-06-10T00:30:41.816Z,72.78
2018-06-10T00:33:10.901Z,73.10
2018-06-10T00:35:39.960Z,72.41
2018-06-10T00:38:08.938Z,72.60
2018-06-10T00:40:38.010Z,72.28
2018-06-10T00:43:07.049Z,72.34
2018-06-10T00:45:38.449Z,71.67
2018-06-10T00:48:07.475Z,71.52
2018-06-10T00:50:36.554Z,71.90
2018-06-10T00:53:05.643Z,71.35
2018-06-10T00:55:34.681Z,71.88
2018-06-10T00:58:03.736Z,71.56
2018-06-10T01:00:32.824Z,71.63
2018-06-10T01:03:01.850Z,70.48
2018-06-10T01:05:30.857Z,70.36
2018-06-10T01:07:59.949Z,71.30
2018-06-10T01:10:28.912Z,70.38
2018-06-10T01:12:58.841Z,71.48
2018-06-10T01:15:27.795Z,71.23
2018-06-10T01:17:56.802Z,70.94
2018-06-10T01:20:25.832Z,70.42
2018-06-10T01:22:54.801Z,71.53
2018-06-10T01:25:23.887Z,70.65
2018-06-10T01:27:52.857Z,70.50
2018-06-10T01:30:21.801Z,70.03
2018-06-10T01:32:50.809Z,70.49
2018-06-10T01:35:19.798Z,70.40
2018-06-10T01:37:48.805Z,70.45
2018-06-10T01:40:17.865Z,70.31
2018-06-10T01:42:46.885Z,69.87
2018-06-10T01:45:15.908Z,70.59
2018-06-10T01:47:44.887Z,70.58
2018-06-10T01:50:13.915Z,70.40
2018-06-10T01:52:42.925Z,69.90
2018-06-10T01:55:11.952Z,70.38
2018-06-10T01:57:41.049Z,70.54
2018-06-10T02:00:10.078Z,70.68
2018-06-10T02:02:39.203Z,70.94
2018-06-10T02:05:08.404Z,70.81
2018-06-10T02:07:37.436Z,71.36
2018-06-10T02:10:06.493Z,71.11
2018-06-10T02:12:35.538Z,71.43
2018-06-10T02:15:04.612Z,71.06
2018-06-10T02:17:33.581Z,71.70
2018-06-10T02:20:02.612Z,70.78
2018-06-10T02:22:31.582Z,71.88
2018-06-10T02:25:00.620Z,71.50
2018-06-10T02:27:29.652Z,71.16
2018-06-10T02:29:58.684Z,71.54
2018-06-10T02:32:27.648Z,70.75
2018-06-10T02:34:56.718Z,71.19
2018-06-10T02:37:25.764Z,70.72
2018-06-10T02:39:54.845Z,71.32
2018-06-10T02:42:23.853Z,71.19
2018-06-10T02:44:52.862Z,71.75
2018-06-10T02:47:22.320Z,70.65
2018-06-10T02:49:51.341Z,71.36
2018-06-10T02:52:20.411Z,71.58
2018-06-10T02:54:49.373Z,71.57
2018-06-10T02:57:18.328Z,72.52
2018-06-10T02:59:47.306Z,71.65
2018-06-10T03:02:16.269Z,71.77
2018-06-10T03:04:45.381Z,71.65
2018-06-10T03:07:14.340Z,71.49
2018-06-10T03:09:43.342Z,71.27
2018-06-10T03:12:12.374Z,72.03
2018-06-10T03:14:41.341Z,71.44
2018-06-10T03:17:10.402Z,71.91
2018-06-10T03:19:39.348Z,71.19
2018-06-10T03:22:08.405Z,71.32
2018-06-10T03:24:37.364Z,70.88
2018-06-10T03:27:06.454Z,69.81
2018-06-10T03:29:35.585Z,68.97
2018-06-10T03:32:04.589Z,68.99
2018-06-10T03:34:33.609Z,68.48
2018-06-10T03:37:02.573Z,68.62
2018-06-10T03:39:31.581Z,67.68
2018-06-10T03:42:00.664Z,67.46
2018-06-10T03:44:29.640Z,67.76
2018-06-10T03:46:58.667Z,68.97
2018-06-10T03:49:27.695Z,68.88
2018-06-10T03:51:56.801Z,68.04
2018-06-10T03:54:25.839Z,68.28
2018-06-10T03:56:54.831Z,68.48
2018-06-10T03:59:23.850Z,69.35
2018-06-10T04:01:52.880Z,68.41
2018-06-10T04:04:21.832Z,68.24
2018-06-10T04:06:50.824Z,65.28
2018-06-10T04:09:19.837Z,63.58
2018-06-10T04:11:48.811Z,60.18
2018-06-10T04:14:17.819Z,58.70
2018-06-10T04:16:46.901Z,55.87
2018-06-10T04:19:15.996Z,53.54
2018-06-10T04:21:45.002Z,53.09
2018-06-10T04:24:13.943Z,50.05
2018-06-10T04:26:42.924Z,49.15
2018-06-10T04:29:11.956Z,49.88
2018-06-10T04:31:41.002Z,48.29
2018-06-10T04:34:09.916Z,48.49
2018-06-10T04:36:38.833Z,49.74
2018-06-10T04:39:08.228Z,52.24
2018-06-10T04:41:37.261Z,53.37
2018-06-10T04:44:06.397Z,55.05
2018-06-10T04:46:35.328Z,54.91
2018-06-10T04:49:04.324Z,55.75
2018-06-10T04:51:33.239Z,56.66
2018-06-10T04:54:02.200Z,58.09
2018-06-10T04:56:31.226Z,58.56
2018-06-10T04:59:00.201Z,58.79
2018-06-10T05:01:29.188Z,58.70
2018-06-10T05:03:58.175Z,59.18
2018-06-10T05:06:27.198Z,59.62
2018-06-10T05:08:56.241Z,60.60
2018-06-10T05:11:25.143Z,61.00
2018-06-10T05:13:54.108Z,62.06
2018-06-10T05:16:23.073Z,61.81
2018-06-10T05:18:52.193Z,61.44
2018-06-10T05:21:21.256Z,60.50
2018-06-10T05:23:50.253Z,61.20
2018-06-10T05:26:19.184Z,61.77
2018-06-10T05:28:48.211Z,60.15
2018-06-10T05:31:17.299Z,60.62
2018-06-10T05:33:46.327Z,59.46
2018-06-10T05:36:15.396Z,59.02
2018-06-10T05:38:44.425Z,59.03
2018-06-10T05:41:13.440Z,57.18
2018-06-10T05:43:42.430Z,55.76
2018-06-10T05:46:11.456Z,54.24
2018-06-10T05:48:40.440Z,53.51
2018-06-10T05:51:09.432Z,52.05
2018-06-10T05:53:38.445Z,49.64
2018-06-10T05:56:07.456Z,49.68
2018-06-10T05:58:36.479Z,50.04
2018-06-10T06:01:05.493Z,51.72
2018-06-10T06:03:34.440Z,52.37
2018-06-10T06:06:03.394Z,52.90
2018-06-10T06:08:32.413Z,54.78
2018-06-10T06:11:01.399Z,54.76
2018-06-10T06:13:30.330Z,55.16
2018-06-10T06:15:59.345Z,54.81
2018-06-10T06:18:28.356Z,55.51
2018-06-10T06:20:57.401Z,57.67
2018-06-10T06:23:26.473Z,57.48
2018-06-10T06:25:55.424Z,58.23
2018-06-10T06:28:25.015Z,57.77
2018-06-10T06:30:54.021Z,57.21
2018-06-10T06:33:23.079Z,58.03
2018-06-10T06:35:52.104Z,58.71
2018-06-10T06:38:21.050Z,59.18
2018-06-10T06:40:50.143Z,57.97
2018-06-10T06:43:19.211Z,59.55
2018-06-10T06:45:48.445Z,58.84
2018-06-10T06:48:17.444Z,59.15
2018-06-10T06:50:46.513Z,59.98
2018-06-10T06:53:15.484Z,59.82
2018-06-10T06:55:44.441Z,60.01
2018-06-10T06:58:13.404Z,59.16
2018-06-10T07:00:42.630Z,59.58
2018-06-10T07:03:11.629Z,59.77
2018-06-10T07:05:40.580Z,60.92
2018-06-10T07:08:09.513Z,60.84
2018-06-10T07:10:38.534Z,60.14
2018-06-10T07:13:07.534Z,61.22
2018-06-10T07:15:36.585Z,61.11
2018-06-10T07:18:05.537Z,60.85
2018-06-10T07:20:34.497Z,61.06
2018-06-10T07:23:03.578Z,60.49
2018-06-10T07:25:32.640Z,59.29
2018-06-10T07:28:01.775Z,59.73
2018-06-10T07:30:30.831Z,59.08
2018-06-10T07:32:59.805Z,59.91
2018-06-10T07:35:28.852Z,59.25
2018-06-10T07:37:57.841Z,59.43
2018-06-10T07:40:26.885Z,58.83
2018-06-10T07:42:55.860Z,58.40
2018-06-10T07:45:24.889Z,58.86
2018-06-10T07:47:53.942Z,58.50
2018-06-10T07:50:23.129Z,58.10
2018-06-10T07:52:52.075Z,57.81
2018-06-10T07:55:21.010Z,57.38
2018-06-10T07:57:49.948Z,56.64
2018-06-10T08:00:18.893Z,55.33
2018-06-10T08:02:47.883Z,54.55
2018-06-10T08:05:16.880Z,54.36
2018-06-10T08:07:45.937Z,54.38
2018-06-10T08:10:15.013Z,53.27
2018-06-10T08:12:43.985Z,51.72
2018-06-10T08:15:12.989Z,51.22
2018-06-10T08:17:42.060Z,51.63
2018-06-10T08:20:11.061Z,52.42
2018-06-10T08:22:40.069Z,50.51
2018-06-10T08:25:08.999Z,51.16
2018-06-10T08:27:38.028Z,51.28
2018-06-10T08:30:07.114Z,52.22
2018-06-10T08:32:36.132Z,53.32
2018-06-10T08:35:05.225Z,53.39
2018-06-10T08:37:34.369Z,52.94
2018-06-10T08:40:03.441Z,52.03
2018-06-10T08:42:32.403Z,51.12
2018-06-10T08:45:01.328Z,49.58
2018-06-10T08:47:30.324Z,48.94
2018-06-10T08:49:59.287Z,47.84
2018-06-10T08:52:28.405Z,46.63
2018-06-10T08:54:57.400Z,48.79
2018-06-10T08:57:26.451Z,48.83
2018-06-10T08:59:55.657Z,49.30
2018-06-10T09:02:24.651Z,50.39
2018-06-10T09:04:53.708Z,46.52
2018-06-10T09:07:22.680Z,49.38
2018-06-10T09:09:51.622Z,50.00
2018-06-10T09:12:20.548Z,50.37
2018-06-10T09:14:49.586Z,50.53
2018-06-10T09:17:18.632Z,51.01
2018-06-10T09:19:47.673Z,49.21
2018-06-10T09:22:16.707Z,46.78
2018-06-10T09:24:45.632Z,47.69
2018-06-10T09:27:14.621Z,46.67
2018-06-10T09:29:43.714Z,44.44
2018-06-10T09:32:12.691Z,43.67
2018-06-10T09:34:41.628Z,41.05
2018-06-10T09:37:10.645Z,42.11
2018-06-10T09:39:39.685Z,43.04
2018-06-10T09:42:08.814Z,41.40
2018-06-10T09:44:37.773Z,41.53
2018-06-10T09:47:06.826Z,40.53
2018-06-10T09:49:35.873Z,39.78
2018-06-10T09:52:04.869Z,40.42
2018-06-10T09:54:33.967Z,40.59
2018-06-10T09:57:02.953Z,42.31
2018-06-10T09:59:31.907Z,42.92
2018-06-10T10:02:00.905Z,42.95
2018-06-10T10:04:29.895Z,42.85
2018-06-10T10:06:58.984Z,40.11
2018-06-10T10:09:27.940Z,40.55
2018-06-10T10:11:56.952Z,40.74
2018-06-10T10:14:26.015Z,42.09
2018-06-10T10:16:55.001Z,39.87
2018-06-10T10:19:24.064Z,38.32
2018-06-10T10:21:53.168Z,38.45
2018-06-10T10:24:22.103Z,39.11
2018-06-10T10:26:51.168Z,37.20
2018-06-10T10:29:20.119Z,39.49
2018-06-10T10:31:49.155Z,37.23
2018-06-10T10:34:18.132Z,37.97
2018-06-10T10:36:47.153Z,39.00
2018-06-10T10:39:16.250Z,37.35
2018-06-10T10:41:45.275Z,38.18
2018-06-10T10:44:14.337Z,38.45
2018-06-10T10:46:43.418Z,40.17
2018-06-10T10:49:12.400Z,40.43
2018-06-10T10:51:41.357Z,41.17
2018-06-10T10:54:10.315Z,42.51
2018-06-10T10:56:39.389Z,43.52
2018-06-10T10:59:08.401Z,42.94
2018-06-10T11:01:37.374Z,40.93
2018-06-10T11:04:06.355Z,40.38
2018-06-10T11:06:35.396Z,36.91
2018-06-10T11:09:05.845Z,37.30
2018-06-10T11:11:34.834Z,36.74
2018-06-10T11:14:03.868Z,36.59
2018-06-10T11:16:32.825Z,37.33
2018-06-10T11:19:01.857Z,37.67
2018-06-10T11:21:30.868Z,37.53
2018-06-10T11:23:59.896Z,39.75
2018-06-10T11:26:28.853Z,40.16
2018-06-10T11:28:57.937Z,41.37
2018-06-10T11:31:27.030Z,39.08
2018-06-10T11:33:56.122Z,37.32
2018-06-10T11:36:25.091Z,38.47
2018-06-10T11:38:54.093Z,36.83
2018-06-10T11:41:23.114Z,36.92
2018-06-10T11:43:52.099Z,37.73
2018-06-10T11:46:21.229Z,33.51
2018-06-10T11:48:50.246Z,31.62
2018-06-10T11:51:19.297Z,30.73
2018-06-10T11:53:48.336Z,32.77
2018-06-10T11:56:17.332Z,32.61
2018-06-10T11:58:46.408Z,30.08
2018-06-10T12:01:15.372Z,29.00
2018-06-10T12:03:44.381Z,29.51
2018-06-10T12:06:13.438Z,32.27
2018-06-10T12:08:42.472Z,30.62
2018-06-10T12:11:11.499Z,29.58
2018-06-10T12:13:40.568Z,29.51
2018-06-10T12:16:09.520Z,29.52
2018-06-10T12:18:38.633Z,28.24
2018-06-10T12:21:07.656Z,29.19
2018-06-10T12:23:36.675Z,28.74
2018-06-10T12:26:05.652Z,29.41
2018-06-10T12:28:34.714Z,28.50
2018-06-10T12:31:03.687Z,27.84
2018-06-10T12:33:32.635Z,27.69
2018-06-10T12:36:01.810Z,26.82
2018-06-10T12:38:31.541Z,28.63
2018-06-10T12:41:00.496Z,28.12
2018-06-10T12:43:29.521Z,28.08
2018-06-10T12:45:58.576Z,27.98
2018-06-10T12:48:27.588Z,27.23
2018-06-10T12:50:56.547Z,27.04
2018-06-10T12:53:25.614Z,29.21
2018-06-10T12:55:56.781Z,28.41
2018-06-10T12:58:25.736Z,26.74
2018-06-10T13:00:54.756Z,27.54
2018-06-10T13:03:23.696Z,26.60
2018-06-10T13:05:52.773Z,27.34
2018-06-10T13:08:21.781Z,26.10
2018-06-10T13:10:50.773Z,25.87
2018-06-10T13:13:19.897Z,26.69
2018-06-10T13:15:48.916Z,28.37
2018-06-10T13:18:17.921Z,28.93
2018-06-10T13:20:46.985Z,31.28
2018-06-10T13:23:15.952Z,32.61
2018-06-10T13:25:45.047Z,34.06
2018-06-10T13:28:14.048Z,34.48
2018-06-10T13:30:43.069Z,33.35
2018-06-10T13:33:12.144Z,33.55
2018-06-10T13:35:41.109Z,34.56
2018-06-10T13:38:10.116Z,35.83
2018-06-10T13:40:39.127Z,34.90
2018-06-10T13:43:08.111Z,34.23
2018-06-10T13:45:37.149Z,34.20
2018-06-10T13:48:06.141Z,33.17
2018-06-10T13:50:35.277Z,34.14
2018-06-10T13:53:04.376Z,33.55
2018-06-10T13:55:33.395Z,33.90
2018-06-10T13:58:02.420Z,35.40
2018-06-10T14:00:31.465Z,35.39
2018-06-10T14:03:00.532Z,35.84
2018-06-10T14:05:29.492Z,40.71
2018-06-10T14:07:58.485Z,42.05
2018-06-10T14:10:27.551Z,41.62
2018-06-10T14:12:56.609Z,41.23
2018-06-10T14:15:25.681Z,41.99
2018-06-10T14:17:54.698Z,40.22
2018-06-10T14:20:23.776Z,41.16
2018-06-10T14:22:52.738Z,41.54
2018-06-10T14:25:21.760Z,43.17
2018-06-10T14:27:50.840Z,40.98
2018-06-10T14:30:19.902Z,41.68
2018-06-10T14:32:48.885Z,42.20
2018-06-10T14:35:17.849Z,40.54
2018-06-10T14:37:46.842Z,41.92
2018-06-10T14:40:15.843Z,41.38
2018-06-10T14:42:44.790Z,40.42
2018-06-10T14:45:13.765Z,40.25
2018-06-10T14:47:42.722Z,39.76
2018-06-10T14:50:11.748Z,42.05
2018-06-10T14:52:40.772Z,44.88
2018-06-10T14:55:09.779Z,41.12
2018-06-10T14:57:38.765Z,40.92
2018-06-10T15:00:07.780Z,42.18
2018-06-10T15:02:36.736Z,39.97
2018-06-10T15:05:05.865Z,38.64
2018-06-10T15:07:34.840Z,37.90
2018-06-10T15:10:03.872Z,36.40
2018-06-10T15:12:32.981Z,37.00
2018-06-10T15:15:01.958Z,37.00
2018-06-10T15:17:30.979Z,37.87
2018-06-10T15:20:00.061Z,37.50
2018-06-10T15:22:29.044Z,36.94
2018-06-10T15:24:58.071Z,38.03
2018-06-10T15:27:27.024Z,37.64
2018-06-10T15:29:56.036Z,37.96
2018-06-10T15:32:25.009Z,37.60
2018-06-10T15:34:53.997Z,37.59
2018-06-10T15:37:23.095Z,37.93
2018-06-10T15:39:52.187Z,37.82
2018-06-10T15:42:21.393Z,37.99
2018-06-10T15:44:50.433Z,38.30
2018-06-10T15:47:19.408Z,38.61
2018-06-10T15:49:48.425Z,38.59
2018-06-10T15:52:17.412Z,38.85
2018-06-10T15:54:46.414Z,37.44
2018-06-10T15:57:15.434Z,38.30
2018-06-10T15:59:44.409Z,38.45
2018-06-10T16:02:13.384Z,37.97
2018-06-10T16:04:42.401Z,39.48
2018-06-10T16:07:11.504Z,38.43
2018-06-10T16:09:40.558Z,38.88
2018-06-10T16:12:09.578Z,39.57
2018-06-10T16:14:38.656Z,41.10
2018-06-10T16:17:07.813Z,39.89
2018-06-10T16:19:36.849Z,38.98
2018-06-10T16:22:05.779Z,39.45
2018-06-10T16:24:34.732Z,40.59
2018-06-10T16:27:03.676Z,41.71
2018-06-10T16:29:32.673Z,41.34
2018-06-10T16:32:01.781Z,41.37
2018-06-10T16:34:30.817Z,41.85
2018-06-10T16:36:59.858Z,40.24
2018-06-10T16:39:28.884Z,40.61
2018-06-10T16:41:57.824Z,41.07
2018-06-10T16:44:26.890Z,42.87
2018-06-10T16:46:55.875Z,42.38
2018-06-10T16:49:24.860Z,42.34
2018-06-10T16:51:53.818Z,43.77
2018-06-10T16:54:22.776Z,44.83
2018-06-10T16:56:51.901Z,47.00
2018-06-10T16:59:20.874Z,47.88
2018-06-10T17:01:49.912Z,47.86
2018-06-10T17:04:18.858Z,49.09
2018-06-10T17:06:47.881Z,50.30
2018-06-10T17:09:16.881Z,50.56
2018-06-10T17:11:45.946Z,51.44
2018-06-10T17:14:14.916Z,51.24
2018-06-10T17:16:43.954Z,51.88
2018-06-10T17:19:12.916Z,53.03
2018-06-10T17:21:41.933Z,54.03
2018-06-10T17:24:11.009Z,54.31
2018-06-10T17:26:39.965Z,54.72
2018-06-10T17:29:08.940Z,55.64
2018-06-10T17:31:37.953Z,56.08
2018-06-10T17:34:06.989Z,56.35
2018-06-10T17:36:35.955Z,56.05
2018-06-10T17:39:06.848Z,56.38
2018-06-10T17:41:35.828Z,55.94
2018-06-10T17:44:05.007Z,56.29
2018-06-10T17:46:34.080Z,55.84
2018-06-10T17:49:03.221Z,57.05
2018-06-10T17:51:32.180Z,56.79
2018-06-10T17:54:01.261Z,56.95
2018-06-10T17:56:30.291Z,56.85
2018-06-10T17:58:59.357Z,57.33
2018-06-10T18:01:28.409Z,57.55
2018-06-10T18:05:00.642Z,58.71
2018-06-10T18:07:29.629Z,58.90
2018-06-10T18:09:58.723Z,60.47
2018-06-10T18:12:27.701Z,60.97
2018-06-10T18:14:56.722Z,61.35
2018-06-10T18:17:25.890Z,62.51
2018-06-10T18:19:54.848Z,63.05
2018-06-10T18:22:23.829Z,62.87
2018-06-10T18:24:52.824Z,62.36
2018-06-10T18:27:21.772Z,63.81
2018-06-10T18:29:50.846Z,63.82
2018-06-10T18:32:19.876Z,63.90
2018-06-10T18:34:48.897Z,63.97
2018-06-10T18:37:17.926Z,64.53
2018-06-10T18:39:46.953Z,64.67
2018-06-10T18:42:16.040Z,65.35
2018-06-10T18:44:45.059Z,64.53
2018-06-10T18:47:14.177Z,65.43
2018-06-10T18:49:43.225Z,65.06
2018-06-10T18:52:12.256Z,65.73
2018-06-10T18:54:41.279Z,65.86
2018-06-10T18:57:10.244Z,66.41
2018-06-10T18:59:39.244Z,66.10
2018-06-10T19:02:08.265Z,66.22
2018-06-10T19:04:37.224Z,65.56
2018-06-10T19:07:06.280Z,65.88
2018-06-10T19:09:35.361Z,65.64
2018-06-10T19:12:04.335Z,66.87
2018-06-10T19:14:33.372Z,67.03
2018-06-10T19:17:02.445Z,67.25
2018-06-10T19:19:31.488Z,67.65
2018-06-10T19:22:00.520Z,67.92
2018-06-10T19:24:29.564Z,67.74
2018-06-10T19:26:58.602Z,68.25
2018-06-10T19:29:27.599Z,68.58
2018-06-10T19:31:56.677Z,68.16
2018-06-10T19:34:25.655Z,68.10
2018-06-10T19:36:54.644Z,68.56
2018-06-10T19:39:23.596Z,68.64
2018-06-10T19:41:52.564Z,69.62
2018-06-10T19:44:21.591Z,68.93
2018-06-10T19:46:50.556Z,69.25
2018-06-10T19:49:19.624Z,69.85
2018-06-10T19:51:48.662Z,70.08
2018-06-10T19:54:17.790Z,70.26
2018-06-10T19:56:46.824Z,69.53
2018-06-10T19:59:15.832Z,70.37
2018-06-10T20:01:44.797Z,70.35
2018-06-10T20:04:13.900Z,71.15
2018-06-10T20:06:42.857Z,70.01
2018-06-10T20:09:11.981Z,69.67
2018-06-10T20:11:40.992Z,70.83
2018-06-10T20:14:10.001Z,70.43
2018-06-10T20:16:38.961Z,71.71
2018-06-10T20:19:07.931Z,71.19
2018-06-10T20:21:36.998Z,72.76
2018-06-10T20:24:06.001Z,73.54
2018-06-10T20:26:35.014Z,73.16
2018-06-10T20:29:03.987Z,73.87
2018-06-10T20:31:33.096Z,74.10
2018-06-10T20:34:02.332Z,74.14
2018-06-10T20:36:31.368Z,74.73
2018-06-10T20:39:00.316Z,74.91
2018-06-10T20:41:29.333Z,73.77
2018-06-10T20:43:58.324Z,74.35
2018-06-10T20:46:27.331Z,74.03
2018-06-10T20:48:56.287Z,74.15
2018-06-10T20:51:25.238Z,74.24
2018-06-10T20:53:54.188Z,74.05
2018-06-10T20:56:23.133Z,73.00
2018-06-10T20:58:52.184Z,74.26
2018-06-10T21:01:21.189Z,74.41
2018-06-10T21:03:50.131Z,74.62
2018-06-10T21:06:19.088Z,75.11
2018-06-10T21:08:48.037Z,74.63
2018-06-10T21:11:17.028Z,75.35
2018-06-10T21:13:46.044Z,74.81
2018-06-10T21:16:15.101Z,75.39
2018-06-10T21:18:44.058Z,75.43
2018-06-10T21:21:12.996Z,74.70
2018-06-10T21:23:41.989Z,75.59
2018-06-10T21:26:11.034Z,75.78
2018-06-10T21:28:40.061Z,75.18
2018-06-10T21:31:09.085Z,76.02
2018-06-10T21:33:38.039Z,75.29
2018-06-10T21:36:07.060Z,75.59
2018-06-10T21:38:36.057Z,75.36
2018-06-10T21:41:04.995Z,75.39
2018-06-10T21:43:33.940Z,75.16
2018-06-10T21:46:02.952Z,75.92
2018-06-10T21:48:32.068Z,75.45
2018-06-10T21:51:01.008Z,75.04
2018-06-10T21:53:29.951Z,75.99
2018-06-10T21:55:59.061Z,76.10
2018-06-10T21:58:28.020Z,75.34
2018-06-10T22:00:58.501Z,74.80
2018-06-10T22:03:27.440Z,75.88
2018-06-10T22:05:56.396Z,75.99
2018-06-10T22:08:25.409Z,75.56
2018-06-10T22:10:54.364Z,75.82
2018-06-10T22:13:23.406Z,76.05
2018-06-10T22:15:52.368Z,75.27
2018-06-10T22:18:21.380Z,76.23
2018-06-10T22:20:50.442Z,76.16
2018-06-10T22:23:19.436Z,76.62
2018-06-10T22:25:48.492Z,76.54
2018-06-10T22:28:17.502Z,76.22
2018-06-10T22:30:46.506Z,77.13
2018-06-10T22:33:15.460Z,77.05
2018-06-10T22:35:44.513Z,76.94
2018-06-10T22:38:13.532Z,77.33
2018-06-10T22:40:42.510Z,77.16
2018-06-10T22:43:11.480Z,76.80
2018-06-10T22:45:40.423Z,77.09
2018-06-10T22:48:09.360Z,77.18
2018-06-10T22:50:38.534Z,76.73
2018-06-10T22:53:20.357Z,76.61
2018-06-10T22:55:49.421Z,76.57
2018-06-10T23:01:01.728Z,77.10
2018-06-10T23:03:30.668Z,77.50
2018-06-10T23:05:59.655Z,76.69
2018-06-10T23:08:28.724Z,76.77
2018-06-10T23:10:57.724Z,76.81
2018-06-10T23:13:26.784Z,76.76
2018-06-10T23:15:55.751Z,77.95
2018-06-10T23:18:24.745Z,77.21
2018-06-10T23:20:53.720Z,78.26
2018-06-10T23:23:22.656Z,77.82
2018-06-10T23:25:51.793Z,77.86
2018-06-10T23:28:20.732Z,77.34
2018-06-10T23:30:49.717Z,76.58
2018-06-10T23:33:18.668Z,76.52
2018-06-10T23:35:47.612Z,76.89
2018-06-10T23:38:16.721Z,76.49
2018-06-10T23:40:45.731Z,76.57
2018-06-10T23:43:14.674Z,75.97
2018-06-10T23:45:43.620Z,76.13
2018-06-10T23:48:12.618Z,76.35
2018-06-10T23:50:41.668Z,76.40
2018-06-10T23:53:10.725Z,76.44
2018-06-10T23:55:39.736Z,76.37
2018-06-10T23:58:08.764Z,75.91
